Time;durP1;ratioP1;P1;durP2;ratioP2;P2;SDS_P1;SDS_P2;PMS_P1;PMS_P2;Temp;Humidity;BMP_temperature;BMP_pressure;BME280_temperature;BME280_humidity;BME280_pressure;Samples;Min_cycle;Max_cycle;Signal;HPM_P1;HPM_P2
2023/06/21 00:02:28;;;;;;;14.10;9.90;;;;;;;;;;110387;1276;21834;-79
2023/06/21 00:04:57;;;;;;;17.50;10.40;;;;;;;;;;110528;1258;22972;-80
2023/06/21 00:07:23;;;;;;;15.90;10.40;;;;;;;;;;110574;1269;22344;-79
2023/06/21 00:09:52;;;;;;;15.60;10.00;;;;;;;;;;110496;1275;22123;-79
2023/06/21 00:12:18;;;;;;;14.70;10.20;;;;;;;;;;110585;1275;22158;-79
2023/06/21 00:14:44;;;;;;;14.20;9.90;;;;;;;;;;110499;1259;22796;-79
2023/06/21 00:17:10;;;;;;;15.40;9.80;;;;;;;;;;110407;1275;22130;-80
2023/06/21 00:19:37;;;;;;;15.00;10.20;;;;;;;;;;110257;1277;22829;-80
2023/06/21 00:22:04;;;;;;;13.10;10.40;;;;;;;;;;110238;1277;22166;-79
2023/06/21 00:24:30;;;;;;;14.50;9.70;;;;;;;;;;110413;1254;22157;-79
2023/06/21 00:26:56;;;;;;;14.20;9.70;;;;;;;;;;110487;1275;22112;-79
2023/06/21 00:29:22;;;;;;;13.10;9.70;;;;;;;;;;110387;1275;22934;-79
2023/06/21 00:31:48;;;;;;;14.70;10.10;;;;;;;;;;110514;1270;22116;-80
2023/06/21 00:34:14;;;;;;;12.40;9.60;;;;;;;;;;110459;1273;22390;-80
2023/06/21 00:36:41;;;;;;;15.20;9.90;;;;;;;;;;110519;1259;22374;-79
2023/06/21 00:39:08;;;;;;;15.80;9.60;;;;;;;;;;110285;1275;22414;-79
2023/06/21 00:41:34;;;;;;;14.20;10.20;;;;;;;;;;110396;1263;22139;-79
2023/06/21 00:44:00;;;;;;;14.30;9.80;;;;;;;;;;110507;1276;22429;-79
2023/06/21 00:46:29;;;;;;;13.50;9.70;;;;;;;;;;110484;1256;22413;-79
2023/06/21 00:48:58;;;;;;;14.10;9.80;;;;;;;;;;110330;1275;22168;-79
2023/06/21 00:51:24;;;;;;;16.50;10.00;;;;;;;;;;110493;1272;22957;-79
2023/06/21 00:53:50;;;;;;;13.50;9.70;;;;;;;;;;110497;1269;22862;-79
2023/06/21 00:56:16;;;;;;;14.50;9.80;;;;;;;;;;110529;1257;22332;-79
2023/06/21 00:58:43;;;;;;;16.10;10.10;;;;;;;;;;110397;1275;23169;-79
2023/06/21 01:01:09;;;;;;;13.90;10.20;;;;;;;;;;110320;1277;22157;-79
2023/06/21 01:03:35;;;;;;;15.80;10.30;;;;;;;;;;110297;1278;22084;-79
2023/06/21 01:06:21;;;;;;;15.10;9.80;;;;;;;;;;110348;1256;22119;-79
2023/06/21 01:09:02;;;;;;;14.30;9.60;;;;;;;;;;110367;1275;22129;-79
2023/06/21 01:11:37;;;;;;;14.80;10.50;;;;;;;;;;110408;1275;22122;-80
2023/06/21 01:14:16;;;;;;;15.40;9.60;;;;;;;;;;110516;1275;21990;-79
2023/06/21 01:16:43;;;;;;;13.00;10.10;;;;;;;;;;110735;1258;23165;-79
2023/06/21 01:19:24;;;;;;;12.90;9.80;;;;;;;;;;110262;1275;22123;-79
2023/06/21 01:21:51;;;;;;;13.60;9.60;;;;;;;;;;110365;1276;22127;-79
2023/06/21 01:24:35;;;;;;;15.30;9.60;;;;;;;;;;110315;1276;22133;-79
2023/06/21 01:27:20;;;;;;;14.90;9.80;;;;;;;;;;110618;1259;22229;-79
2023/06/21 01:29:47;;;;;;;16.20;10.40;;;;;;;;;;110483;1272;22858;-79
2023/06/21 01:32:14;;;;;;;15.50;10.20;;;;;;;;;;110477;1274;22144;-79
2023/06/21 01:34:40;;;;;;;12.70;9.90;;;;;;;;;;110470;1275;22630;-79
2023/06/21 01:37:08;;;;;;;13.30;9.40;;;;;;;;;;110680;1258;22136;-79
2023/06/21 01:39:35;;;;;;;15.70;9.80;;;;;;;;;;110344;1276;22613;-79
2023/06/21 01:42:03;;;;;;;14.60;9.40;;;;;;;;;;110343;1277;22102;-79
2023/06/21 01:44:29;;;;;;;14.20;10.30;;;;;;;;;;110226;1278;22117;-79
2023/06/21 01:46:57;;;;;;;15.00;10.50;;;;;;;;;;110403;1256;22140;-79
2023/06/21 01:49:24;;;;;;;17.40;11.00;;;;;;;;;;110422;1276;22139;-79
2023/06/21 01:51:50;;;;;;;14.50;10.40;;;;;;;;;;110314;1276;22892;-79
2023/06/21 01:54:20;;;;;;;15.00;10.50;;;;;;;;;;110223;1276;22117;-80
2023/06/21 01:56:46;;;;;;;14.30;10.40;;;;;;;;;;110310;1262;23159;-79
2023/06/21 01:59:14;;;;;;;14.40;10.40;;;;;;;;;;110291;1278;22775;-79
2023/06/21 02:01:42;;;;;;;14.10;10.60;;;;;;;;;;110314;1278;22122;-79
2023/06/21 02:04:09;;;;;;;16.40;10.50;;;;;;;;;;110328;1278;22149;-78
2023/06/21 02:06:35;;;;;;;16.80;10.40;;;;;;;;;;110302;1259;22143;-79
2023/06/21 02:09:05;;;;;;;16.00;10.40;;;;;;;;;;110372;1276;22139;-79
2023/06/21 02:11:32;;;;;;;14.40;10.50;;;;;;;;;;110307;1275;22112;-80
2023/06/21 02:13:58;;;;;;;16.10;10.80;;;;;;;;;;110231;1276;22110;-80
2023/06/21 02:16:25;;;;;;;13.50;10.20;;;;;;;;;;110334;1254;22394;-80
2023/06/21 02:18:52;;;;;;;16.70;10.70;;;;;;;;;;110301;1278;22145;-79
2023/06/21 02:21:19;;;;;;;17.00;10.20;;;;;;;;;;110343;1278;22385;-79
2023/06/21 02:23:47;;;;;;;17.20;10.50;;;;;;;;;;110213;1268;22170;-79
2023/06/21 02:26:13;;;;;;;16.50;11.00;;;;;;;;;;110332;1277;22000;-79
2023/06/21 02:28:42;;;;;;;16.20;10.70;;;;;;;;;;110276;1256;22117;-79
2023/06/21 02:31:09;;;;;;;15.20;9.60;;;;;;;;;;110309;1276;22365;-79
2023/06/21 02:33:35;;;;;;;13.90;10.00;;;;;;;;;;110310;1277;22219;-79
2023/06/21 02:36:01;;;;;;;14.70;10.00;;;;;;;;;;110315;1276;22883;-79
2023/06/21 02:38:28;;;;;;;13.70;10.00;;;;;;;;;;110374;1262;22747;-78
2023/06/21 02:40:57;;;;;;;17.00;10.10;;;;;;;;;;110421;1277;22202;-79
2023/06/21 02:43:27;;;;;;;14.70;10.80;;;;;;;;;;110245;1269;22788;-79
2023/06/21 02:45:56;;;;;;;15.70;10.90;;;;;;;;;;110166;1279;22144;-79
2023/06/21 02:48:25;;;;;;;15.30;10.50;;;;;;;;;;110446;1260;22112;-80
2023/06/21 02:50:51;;;;;;;17.30;10.80;;;;;;;;;;110242;1278;22202;-80
2023/06/21 02:53:18;;;;;;;16.60;10.80;;;;;;;;;;110129;1278;22165;-79
2023/06/21 02:55:44;;;;;;;15.20;10.70;;;;;;;;;;110323;1278;22169;-80
2023/06/21 02:58:12;;;;;;;13.70;10.00;;;;;;;;;;110256;1259;22113;-80
2023/06/21 03:00:40;;;;;;;13.80;10.00;;;;;;;;;;110241;1278;22132;-80
2023/06/21 03:03:08;;;;;;;13.90;10.10;;;;;;;;;;110290;1263;22133;-80
2023/06/21 03:05:37;;;;;;;16.00;10.40;;;;;;;;;;110178;1278;22112;-80
2023/06/21 03:08:04;;;;;;;13.70;9.80;;;;;;;;;;110158;1262;22141;-80
2023/06/21 03:10:32;;;;;;;14.60;10.30;;;;;;;;;;110293;1278;22348;-80
2023/06/21 03:12:59;;;;;;;16.10;9.90;;;;;;;;;;110123;1278;22213;-80
2023/06/21 03:15:25;;;;;;;17.20;9.70;;;;;;;;;;110185;1279;22860;-80
2023/06/21 03:17:52;;;;;;;13.50;10.10;;;;;;;;;;110141;1255;22241;-80
2023/06/21 03:20:19;;;;;;;14.00;10.30;;;;;;;;;;110165;1267;22320;-80
2023/06/21 03:22:46;;;;;;;13.80;9.70;;;;;;;;;;110261;1279;22156;-80
2023/06/21 03:25:13;;;;;;;14.80;9.60;;;;;;;;;;110148;1278;22208;-80
2023/06/21 03:27:41;;;;;;;15.50;9.50;;;;;;;;;;110277;1275;23159;-80
2023/06/21 03:30:11;;;;;;;14.10;9.40;;;;;;;;;;110351;1262;22135;-80
2023/06/21 03:32:48;;;;;;;13.90;9.60;;;;;;;;;;110128;1279;22112;-78
2023/06/21 03:35:17;;;;;;;12.80;9.50;;;;;;;;;;110270;1279;22134;-78
2023/06/21 03:37:46;;;;;;;13.60;9.50;;;;;;;;;;110208;1278;22566;-79
2023/06/21 03:40:15;;;;;;;12.90;9.50;;;;;;;;;;110279;1258;22929;-78
2023/06/21 03:42:44;;;;;;;14.00;9.80;;;;;;;;;;110258;1279;22201;-78
2023/06/21 03:45:14;;;;;;;11.70;9.30;;;;;;;;;;110296;1278;22116;-78
2023/06/21 03:47:45;;;;;;;12.40;9.30;;;;;;;;;;110109;1279;22146;-78
2023/06/21 03:50:14;;;;;;;14.40;9.70;;;;;;;;;;110277;1262;22805;-79
2023/06/21 03:52:46;;;;;;;13.10;9.20;;;;;;;;;;110130;1278;22145;-78
2023/06/21 03:55:16;;;;;;;12.70;9.50;;;;;;;;;;110142;1278;22400;-79
2023/06/21 03:57:44;;;;;;;14.90;9.80;;;;;;;;;;110161;1279;22858;-78
2023/06/21 04:00:13;;;;;;;12.70;9.50;;;;;;;;;;110270;1262;22907;-79
2023/06/21 04:02:49;;;;;;;13.50;9.70;;;;;;;;;;110144;1278;22127;-78
2023/06/21 04:05:18;;;;;;;25.10;10.50;;;;;;;;;;110144;1279;24381;-78
2023/06/21 04:07:48;;;;;;;17.00;9.90;;;;;;;;;;110116;1278;22330;-79
2023/06/21 04:10:17;;;;;;;17.80;10.20;;;;;;;;;;110206;1262;22101;-78
2023/06/21 04:12:45;;;;;;;18.90;10.30;;;;;;;;;;110113;1279;22146;-79
2023/06/21 04:15:15;;;;;;;14.60;10.10;;;;;;;;;;110248;1279;22442;-79
2023/06/21 04:17:44;;;;;;;13.80;9.70;;;;;;;;;;110123;1278;22119;-78
2023/06/21 04:20:15;;;;;;;13.50;9.50;;;;;;;;;;110231;1262;22123;-78
2023/06/21 04:22:45;;;;;;;14.50;9.20;;;;;;;;;;110127;1278;22133;-78
2023/06/21 04:25:13;;;;;;;16.30;9.40;;;;;;;;;;110103;1278;22128;-78
2023/06/21 04:27:45;;;;;;;13.00;8.80;;;;;;;;;;110235;1279;22118;-78
2023/06/21 04:30:13;;;;;;;15.20;9.30;;;;;;;;;;110126;1262;22128;-78
2023/06/21 04:32:50;;;;;;;13.20;9.30;;;;;;;;;;110111;1279;22137;-78
2023/06/21 04:35:18;;;;;;;13.60;9.50;;;;;;;;;;110166;1279;22378;-79
2023/06/21 04:37:48;;;;;;;13.90;9.70;;;;;;;;;;110256;1279;22129;-79
2023/06/21 04:40:17;;;;;;;16.30;9.50;;;;;;;;;;110115;1262;22132;-77
2023/06/21 04:50:05;;;;;;;15.90;9.50;;;;;;;;;;104071;1292;544877;-84
2023/06/21 04:52:32;;;;;;;16.10;9.40;;;;;;;;;;106190;1287;24355;-80
2023/06/21 04:55:01;;;;;;;15.40;9.50;;;;;;;;;;106405;1283;23015;-81
2023/06/21 04:57:28;;;;;;;12.60;10.00;;;;;;;;;;106303;1287;25282;-80
2023/06/21 04:59:57;;;;;;;14.30;10.20;;;;;;;;;;106379;1277;22505;-79
2023/06/21 05:02:24;;;;;;;16.80;10.10;;;;;;;;;;106056;1287;22562;-84
2023/06/21 05:04:51;;;;;;;14.80;11.00;;;;;;;;;;104136;1285;3111480;-80
2023/06/21 05:07:18;;;;;;;14.80;10.80;;;;;;;;;;106351;1285;23991;-79
2023/06/21 05:09:44;;;;;;;15.80;10.40;;;;;;;;;;106146;1274;22533;-86
2023/06/21 05:12:11;;;;;;;16.70;10.60;;;;;;;;;;106333;1285;22681;-83
2023/06/21 05:14:42;;;;;;;13.80;9.70;;;;;;;;;;106364;1285;22542;-84
2023/06/21 05:17:13;;;;;;;14.40;9.40;;;;;;;;;;106306;1285;22534;-80
2023/06/21 05:19:43;;;;;;;15.40;9.40;;;;;;;;;;106156;1285;25414;-81
2023/06/21 05:22:10;;;;;;;15.20;9.50;;;;;;;;;;106323;1285;22534;-83
2023/06/21 05:24:39;;;;;;;18.10;9.60;;;;;;;;;;106123;1285;25844;-82
2023/06/21 05:27:15;;;;;;;17.90;10.00;;;;;;;;;;106459;1285;22553;-80
2023/06/21 05:29:42;;;;;;;16.30;10.10;;;;;;;;;;106375;1263;24257;-85
2023/06/21 05:32:09;;;;;;;18.90;9.10;;;;;;;;;;106102;1285;23877;-85
2023/06/21 05:34:36;;;;;;;14.60;9.60;;;;;;;;;;106805;1278;22527;-83
2023/06/21 05:37:03;;;;;;;14.80;9.40;;;;;;;;;;106758;1278;25322;-81
2023/06/21 05:39:29;;;;;;;16.00;9.10;;;;;;;;;;106826;1271;22527;-80
2023/06/21 05:41:56;;;;;;;20.80;9.50;;;;;;;;;;106475;1260;22527;-80
2023/06/21 05:44:23;;;;;;;18.70;10.40;;;;;;;;;;106717;1280;22547;-83
2023/06/21 05:46:50;;;;;;;21.10;10.60;;;;;;;;;;106353;1280;22528;-82
2023/06/21 05:49:19;;;;;;;24.70;11.20;;;;;;;;;;106510;1280;25283;-79
2023/06/21 05:51:52;;;;;;;18.30;10.80;;;;;;;;;;106565;1264;22540;-79
2023/06/21 05:54:19;;;;;;;30.50;12.30;;;;;;;;;;106614;1280;24201;-80
2023/06/21 05:56:46;;;;;;;26.70;11.90;;;;;;;;;;106827;1272;24263;-80
2023/06/21 05:59:19;;;;;;;42.50;14.60;;;;;;;;;;107006;1277;22781;-84
2023/06/21 06:01:46;;;;;;;51.10;15.20;;;;;;;;;;106845;1260;25336;-84
2023/06/21 06:04:16;;;;;;;25.10;11.50;;;;;;;;;;106800;1266;25233;-83
2023/06/21 06:06:43;;;;;;;20.10;10.50;;;;;;;;;;106773;1277;24199;-85
2023/06/21 06:09:10;;;;;;;19.40;10.90;;;;;;;;;;106916;1277;24256;-81
2023/06/21 06:11:39;;;;;;;19.80;10.50;;;;;;;;;;106953;1277;25547;-82
2023/06/21 06:14:08;;;;;;;16.50;10.70;;;;;;;;;;106923;1272;25449;-80
2023/06/21 06:16:35;;;;;;;16.60;11.00;;;;;;;;;;106883;1277;22648;-84
2023/06/21 06:19:02;;;;;;;18.60;11.60;;;;;;;;;;106876;1277;22618;-84
2023/06/21 06:21:29;;;;;;;15.10;10.50;;;;;;;;;;106785;1259;22544;-80
2023/06/21 06:23:56;;;;;;;15.70;10.30;;;;;;;;;;106864;1277;25536;-80
2023/06/21 06:26:23;;;;;;;15.10;10.40;;;;;;;;;;106975;1277;24243;-86
2023/06/21 06:28:51;;;;;;;14.70;10.30;;;;;;;;;;107068;1275;23135;-81
2023/06/21 06:31:19;;;;;;;17.90;11.20;;;;;;;;;;107119;1256;26577;-79
2023/06/21 06:33:46;;;;;;;19.30;11.30;;;;;;;;;;107171;1261;22528;-86
2023/06/21 06:36:21;;;;;;;19.30;11.30;;;;;;;;;;107069;1275;22539;-85
2023/06/21 06:38:49;;;;;;;15.80;11.40;;;;;;;;;;106959;1275;25320;-84
2023/06/21 06:41:19;;;;;;;19.70;11.30;;;;;;;;;;106862;1260;22530;-82
2023/06/21 06:43:46;;;;;;;17.10;10.70;;;;;;;;;;106922;1276;24208;-85
2023/06/21 06:46:14;;;;;;;16.00;10.20;;;;;;;;;;110162;1276;22101;-80
2023/06/21 06:48:40;;;;;;;19.50;11.80;;;;;;;;;;110331;1276;22820;-80
2023/06/21 06:51:11;;;;;;;18.70;11.30;;;;;;;;;;110355;1274;22407;-81
2023/06/21 06:53:38;;;;;;;19.70;12.10;;;;;;;;;;110335;1257;22212;-81
2023/06/21 06:56:04;;;;;;;17.30;11.90;;;;;;;;;;110426;1275;22114;-81
2023/06/21 06:58:31;;;;;;;21.30;11.60;;;;;;;;;;110497;1275;22968;-79
2023/06/21 07:00:58;;;;;;;19.10;11.60;;;;;;;;;;110247;1271;22600;-79
2023/06/21 07:03:25;;;;;;;15.50;10.10;;;;;;;;;;110453;1254;22242;-79
2023/06/21 07:05:52;;;;;;;18.50;10.70;;;;;;;;;;110471;1276;22149;-79
2023/06/21 07:08:18;;;;;;;19.10;11.50;;;;;;;;;;110402;1275;22189;-79
2023/06/21 07:10:45;;;;;;;17.80;10.20;;;;;;;;;;110432;1270;22799;-79
2023/06/21 07:13:12;;;;;;;17.20;10.90;;;;;;;;;;110283;1260;22186;-79
2023/06/21 07:15:39;;;;;;;15.00;10.90;;;;;;;;;;110464;1276;22100;-79
2023/06/21 07:18:05;;;;;;;17.20;10.70;;;;;;;;;;110451;1276;22931;-79
2023/06/21 07:20:32;;;;;;;18.20;11.00;;;;;;;;;;110435;1275;22143;-79
2023/06/21 07:22:59;;;;;;;16.70;11.10;;;;;;;;;;110502;1256;22132;-79
2023/06/21 07:25:26;;;;;;;14.80;11.30;;;;;;;;;;110428;1272;21991;-79
2023/06/21 07:27:53;;;;;;;17.50;11.40;;;;;;;;;;110465;1275;21756;-80
2023/06/21 07:30:20;;;;;;;14.50;10.00;;;;;;;;;;110594;1275;22118;-79
2023/06/21 07:32:47;;;;;;;16.50;11.00;;;;;;;;;;110569;1253;22111;-79
2023/06/21 07:35:14;;;;;;;15.60;11.70;;;;;;;;;;110585;1275;22895;-80
2023/06/21 07:37:45;;;;;;;15.40;11.80;;;;;;;;;;110496;1275;22904;-79
2023/06/21 07:40:12;;;;;;;15.00;11.40;;;;;;;;;;110432;1275;22375;-78
2023/06/21 07:42:39;;;;;;;14.20;10.60;;;;;;;;;;110404;1255;22227;-78
2023/06/21 07:45:07;;;;;;;12.00;9.70;;;;;;;;;;110295;1277;22348;-79
2023/06/21 07:47:37;;;;;;;14.20;10.30;;;;;;;;;;110307;1277;22830;-79
2023/06/21 07:50:04;;;;;;;15.70;10.70;;;;;;;;;;110238;1277;22933;-78
2023/06/21 07:52:31;;;;;;;14.90;11.20;;;;;;;;;;110261;1253;22199;-78
2023/06/21 07:54:59;;;;;;;14.80;10.60;;;;;;;;;;110592;1276;22082;-79
2023/06/21 07:57:26;;;;;;;14.90;11.20;;;;;;;;;;110360;1276;22138;-79
2023/06/21 07:59:53;;;;;;;15.10;10.70;;;;;;;;;;110500;1276;22181;-79
2023/06/21 08:02:20;;;;;;;13.60;11.10;;;;;;;;;;110468;1276;22937;-79
2023/06/21 08:04:47;;;;;;;15.90;11.50;;;;;;;;;;110776;1254;22186;-79
2023/06/21 08:07:14;;;;;;;14.40;11.40;;;;;;;;;;110480;1276;22100;-79
2023/06/21 08:09:41;;;;;;;14.40;11.10;;;;;;;;;;110275;1272;22150;-80
2023/06/21 08:12:08;;;;;;;11.70;10.40;;;;;;;;;;110590;1272;22027;-78
2023/06/21 08:14:35;;;;;;;14.20;11.30;;;;;;;;;;110926;1253;22160;-79
2023/06/21 08:17:02;;;;;;;16.40;10.90;;;;;;;;;;110639;1276;22757;-78
2023/06/21 08:19:29;;;;;;;16.30;10.60;;;;;;;;;;110463;1276;22114;-78
2023/06/21 08:21:55;;;;;;;14.30;10.30;;;;;;;;;;110465;1276;22094;-79
2023/06/21 08:24:23;;;;;;;12.70;10.40;;;;;;;;;;110622;1256;22112;-80
2023/06/21 08:26:50;;;;;;;14.10;10.20;;;;;;;;;;110481;1276;22329;-79
2023/06/21 08:29:17;;;;;;;12.30;10.70;;;;;;;;;;110568;1276;22721;-79
2023/06/21 08:31:43;;;;;;;14.90;10.80;;;;;;;;;;110470;1276;22155;-79
2023/06/21 08:34:11;;;;;;;12.70;10.30;;;;;;;;;;110721;1254;22126;-79
2023/06/21 08:36:38;;;;;;;14.70;10.10;;;;;;;;;;110466;1276;22583;-78
2023/06/21 08:39:05;;;;;;;15.60;9.90;;;;;;;;;;110490;1276;22325;-79
2023/06/21 08:41:35;;;;;;;14.40;9.40;;;;;;;;;;110312;1273;22172;-78
2023/06/21 08:44:05;;;;;;;14.30;9.10;;;;;;;;;;110510;1259;22146;-79
2023/06/21 08:46:35;;;;;;;14.60;9.60;;;;;;;;;;110231;1269;22117;-80
2023/06/21 08:49:04;;;;;;;11.90;7.70;;;;;;;;;;110470;1271;22126;-79
2023/06/21 08:51:35;;;;;;;12.30;7.90;;;;;;;;;;110413;1276;22103;-80
2023/06/21 08:54:08;;;;;;;11.60;8.20;;;;;;;;;;110454;1253;22112;-79
2023/06/21 08:56:39;;;;;;;13.40;8.80;;;;;;;;;;110228;1276;22152;-81
2023/06/21 08:59:07;;;;;;;11.60;7.70;;;;;;;;;;110284;1276;22145;-79
2023/06/21 09:01:45;;;;;;;13.70;9.20;;;;;;;;;;110311;1276;22294;-79
2023/06/21 09:04:15;;;;;;;12.60;8.70;;;;;;;;;;110532;1253;22142;-79
2023/06/21 09:06:43;;;;;;;11.40;8.90;;;;;;;;;;110429;1276;22266;-79
2023/06/21 09:09:15;;;;;;;11.50;8.10;;;;;;;;;;110306;1276;22087;-79
2023/06/21 09:11:42;;;;;;;12.00;9.40;;;;;;;;;;110457;1276;22381;-80
2023/06/21 09:14:09;;;;;;;12.10;9.30;;;;;;;;;;110456;1253;22232;-81
2023/06/21 09:16:37;;;;;;;12.90;9.40;;;;;;;;;;110444;1276;22489;-81
2023/06/21 09:19:04;;;;;;;11.90;8.90;;;;;;;;;;110475;1275;22187;-80
2023/06/21 09:21:32;;;;;;;14.00;9.30;;;;;;;;;;110328;1276;22109;-80
2023/06/21 09:24:02;;;;;;;10.60;8.70;;;;;;;;;;110276;1276;22121;-80
2023/06/21 09:26:34;;;;;;;13.70;9.60;;;;;;;;;;110815;1256;22184;-82
2023/06/21 09:29:03;;;;;;;15.50;9.80;;;;;;;;;;110269;1265;22138;-82
2023/06/21 09:31:30;;;;;;;14.30;9.80;;;;;;;;;;110497;1276;22200;-81
2023/06/21 09:33:57;;;;;;;13.70;9.30;;;;;;;;;;110412;1276;22179;-80
2023/06/21 09:36:24;;;;;;;11.60;9.10;;;;;;;;;;110758;1256;22165;-79
2023/06/21 09:38:51;;;;;;;13.70;9.20;;;;;;;;;;110327;1272;22110;-78
2023/06/21 09:41:19;;;;;;;12.40;8.80;;;;;;;;;;110489;1276;22924;-80
2023/06/21 09:43:46;;;;;;;13.20;8.60;;;;;;;;;;110442;1277;22908;-80
2023/06/21 09:46:16;;;;;;;12.20;8.60;;;;;;;;;;110486;1259;22183;-78
2023/06/21 09:48:43;;;;;;;13.50;8.30;;;;;;;;;;110229;1277;22113;-79
2023/06/21 09:51:13;;;;;;;10.80;7.40;;;;;;;;;;110176;1275;22114;-80
2023/06/21 09:53:45;;;;;;;9.60;7.10;;;;;;;;;;110230;1277;22617;-80
2023/06/21 09:56:16;;;;;;;12.40;8.00;;;;;;;;;;110416;1257;22097;-80
2023/06/21 09:58:48;;;;;;;11.10;6.60;;;;;;;;;;110380;1277;22148;-81
2023/06/21 10:01:18;;;;;;;12.80;7.50;;;;;;;;;;110212;1277;22919;-80
2023/06/21 10:03:46;;;;;;;11.90;7.40;;;;;;;;;;110252;1277;22852;-80
2023/06/21 10:06:16;;;;;;;15.90;10.40;;;;;;;;;;110460;1257;22922;-80
2023/06/21 10:08:44;;;;;;;13.80;9.40;;;;;;;;;;110392;1277;22111;-81
2023/06/21 10:11:15;;;;;;;12.30;7.90;;;;;;;;;;110220;1277;22326;-80
2023/06/21 10:13:46;;;;;;;10.50;7.50;;;;;;;;;;110221;1276;22475;-79
2023/06/21 10:16:17;;;;;;;12.00;7.10;;;;;;;;;;110490;1256;22662;-80
2023/06/21 10:18:46;;;;;;;14.40;8.40;;;;;;;;;;110393;1277;22506;-79
2023/06/21 10:21:14;;;;;;;12.60;8.20;;;;;;;;;;110235;1277;22124;-80
2023/06/21 10:23:42;;;;;;;13.00;7.70;;;;;;;;;;110184;1277;22181;-80
2023/06/21 10:26:12;;;;;;;13.20;8.30;;;;;;;;;;110493;1256;23022;-83
2023/06/21 10:28:43;;;;;;;15.40;7.50;;;;;;;;;;110409;1277;22132;-80
2023/06/21 10:31:11;;;;;;;12.40;6.80;;;;;;;;;;110160;1277;22761;-83
2023/06/21 10:33:39;;;;;;;13.90;7.50;;;;;;;;;;110257;1272;22396;-81
2023/06/21 10:36:09;;;;;;;15.20;7.60;;;;;;;;;;110185;1256;22166;-79
2023/06/21 10:38:53;;;;;;;13.10;7.40;;;;;;;;;;110410;1277;23253;-80
2023/06/21 10:41:20;;;;;;;12.20;7.40;;;;;;;;;;110401;1272;22134;-81
2023/06/21 10:43:47;;;;;;;10.60;7.60;;;;;;;;;;110448;1277;22129;-80
2023/06/21 10:46:14;;;;;;;10.90;7.60;;;;;;;;;;110501;1254;22133;-79
2023/06/21 10:48:44;;;;;;;12.30;7.80;;;;;;;;;;110178;1278;22238;-82
2023/06/21 10:51:13;;;;;;;9.90;7.00;;;;;;;;;;110200;1278;22790;-80
2023/06/21 10:53:40;;;;;;;11.00;6.90;;;;;;;;;;110158;1277;22562;-80
2023/06/21 10:56:07;;;;;;;11.50;6.70;;;;;;;;;;110180;1254;22321;-81
2023/06/21 10:58:34;;;;;;;11.00;6.40;;;;;;;;;;110322;1278;22174;-80
2023/06/21 11:01:01;;;;;;;10.60;6.40;;;;;;;;;;110213;1278;22102;-81
2023/06/21 11:03:28;;;;;;;13.80;7.10;;;;;;;;;;110127;1278;22004;-81
2023/06/21 11:05:55;;;;;;;9.30;6.50;;;;;;;;;;110192;1278;22156;-81
2023/06/21 11:08:32;;;;;;;12.80;6.90;;;;;;;;;;110471;1260;22013;-80
2023/06/21 11:10:59;;;;;;;9.20;6.60;;;;;;;;;;110444;1278;22160;-81
2023/06/21 11:13:36;;;;;;;10.20;6.90;;;;;;;;;;110473;1275;22754;-80
2023/06/21 11:16:16;;;;;;;10.60;6.70;;;;;;;;;;110190;1278;22161;-81
2023/06/21 11:18:43;;;;;;;12.40;7.20;;;;;;;;;;110704;1259;22386;-80
2023/06/21 11:21:10;;;;;;;12.10;7.10;;;;;;;;;;110143;1278;22116;-81
2023/06/21 11:23:47;;;;;;;12.90;6.60;;;;;;;;;;110192;1278;22087;-80
2023/06/21 11:26:14;;;;;;;13.30;7.00;;;;;;;;;;110184;1278;22118;-81
2023/06/21 11:28:46;;;;;;;13.20;7.50;;;;;;;;;;110386;1260;22577;-81
2023/06/21 11:31:14;;;;;;;11.90;7.60;;;;;;;;;;110323;1278;22373;-81
2023/06/21 11:33:52;;;;;;;12.30;7.20;;;;;;;;;;110438;1278;22118;-81
2023/06/21 11:36:23;;;;;;;13.60;6.40;;;;;;;;;;110443;1278;22110;-80
2023/06/21 11:38:57;;;;;;;9.90;5.70;;;;;;;;;;110453;1261;22112;-82
2023/06/21 11:41:45;;;;;;;10.80;6.20;;;;;;;;;;110207;1278;22230;-81
2023/06/21 11:44:24;;;;;;;9.70;5.30;;;;;;;;;;110418;1278;22273;-80
2023/06/21 11:47:03;;;;;;;10.40;5.30;;;;;;;;;;110183;1278;22096;-81
2023/06/21 11:49:33;;;;;;;10.30;5.70;;;;;;;;;;110470;1260;22234;-82
2023/06/21 11:52:01;;;;;;;8.80;5.10;;;;;;;;;;110174;1274;22119;-81
2023/06/21 11:54:32;;;;;;;9.80;5.10;;;;;;;;;;110258;1278;22676;-80
2023/06/21 11:56:59;;;;;;;8.50;5.00;;;;;;;;;;110242;1278;22136;-80
2023/06/21 11:59:26;;;;;;;9.60;5.00;;;;;;;;;;110347;1262;22127;-79
2023/06/21 12:01:53;;;;;;;9.80;5.80;;;;;;;;;;110243;1278;22527;-81
2023/06/21 12:04:26;;;;;;;11.90;5.10;;;;;;;;;;110277;1278;22100;-81
2023/06/21 12:06:57;;;;;;;10.50;5.40;;;;;;;;;;110172;1277;22831;-80
2023/06/21 12:09:24;;;;;;;8.80;4.80;;;;;;;;;;110492;1259;22124;-80
2023/06/21 12:11:57;;;;;;;9.60;5.10;;;;;;;;;;110206;1278;22055;-81
2023/06/21 12:14:24;;;;;;;10.40;4.70;;;;;;;;;;110268;1278;22235;-80
2023/06/21 12:16:54;;;;;;;9.70;5.20;;;;;;;;;;110363;1277;22110;-80
2023/06/21 12:19:22;;;;;;;8.70;4.00;;;;;;;;;;110457;1259;22104;-82
2023/06/21 12:21:49;;;;;;;8.70;5.00;;;;;;;;;;110382;1278;22143;-80
2023/06/21 12:24:27;;;;;;;10.30;5.30;;;;;;;;;;110185;1278;22126;-80
2023/06/21 12:26:55;;;;;;;8.90;5.30;;;;;;;;;;110162;1278;22099;-81
2023/06/21 12:29:22;;;;;;;8.10;4.60;;;;;;;;;;110441;1260;22097;-81
2023/06/21 12:31:53;;;;;;;8.80;4.90;;;;;;;;;;110349;1278;22095;-81
2023/06/21 12:34:19;;;;;;;8.90;5.10;;;;;;;;;;110339;1278;22827;-80
2023/06/21 12:36:49;;;;;;;9.30;4.90;;;;;;;;;;110137;1278;22117;-81
2023/06/21 12:39:17;;;;;;;8.60;4.60;;;;;;;;;;110195;1263;22139;-80
2023/06/21 12:41:44;;;;;;;11.30;5.40;;;;;;;;;;110360;1278;22193;-80
2023/06/21 12:44:26;;;;;;;8.70;5.10;;;;;;;;;;110335;1278;22591;-80
2023/06/21 12:46:54;;;;;;;8.60;5.00;;;;;;;;;;110216;1279;22094;-80
2023/06/21 12:49:22;;;;;;;9.60;5.40;;;;;;;;;;110138;1262;22781;-81
2023/06/21 12:51:50;;;;;;;9.50;4.80;;;;;;;;;;110233;1279;22842;-80
2023/06/21 12:54:19;;;;;;;9.60;5.20;;;;;;;;;;110219;1279;22116;-83
2023/06/21 12:56:49;;;;;;;12.60;5.80;;;;;;;;;;110194;1279;22320;-83
2023/06/21 12:59:18;;;;;;;8.80;4.80;;;;;;;;;;110235;1260;22823;-80
2023/06/21 13:13:15;;;;;;;9.90;4.90;;;;;;;;;;109924;1279;22107;-80
2023/06/21 13:16:21;;;;;;;8.60;5.20;;;;;;;;;;110116;1280;22565;-82
2023/06/21 13:18:55;;;;;;;8.70;5.50;;;;;;;;;;110026;1280;22122;-82
2023/06/21 13:21:40;;;;;;;12.40;5.50;;;;;;;;;;110534;1262;22180;-81
2023/06/21 13:24:20;;;;;;;9.10;5.10;;;;;;;;;;110149;1280;22880;-81
2023/06/21 13:27:03;;;;;;;10.20;5.10;;;;;;;;;;110081;1280;22165;-82
2023/06/21 13:37:30;;;;;;;9.00;4.80;;;;;;;;;;109884;1286;22248;-81
2023/06/21 13:40:12;;;;;;;8.40;4.90;;;;;;;;;;109804;1267;22250;-81
2023/06/21 13:42:40;;;;;;;8.50;4.60;;;;;;;;;;109789;1286;22579;-79
2023/06/21 13:45:08;;;;;;;8.30;4.90;;;;;;;;;;109842;1286;22176;-82
2023/06/21 13:47:37;;;;;;;7.80;5.00;;;;;;;;;;109774;1286;22215;-80
2023/06/21 13:50:06;;;;;;;8.90;5.10;;;;;;;;;;109750;1262;22833;-82
2023/06/21 13:56:28;;;;;;;10.70;5.60;;;;;;;;;;109918;1285;22913;-78
2023/06/21 13:58:59;;;;;;;9.80;5.40;;;;;;;;;;109770;1286;22932;-81
2023/06/21 14:01:29;;;;;;;9.60;5.60;;;;;;;;;;109960;1264;22169;-79
2023/06/21 14:08:31;;;;;;;10.90;6.00;;;;;;;;;;109912;1286;22232;-80
2023/06/21 14:26:45;;;;;;;9.70;4.30;;;;;;;;;;104932;1301;549802;-81
2023/06/21 14:29:16;;;;;;;11.90;4.90;;;;;;;;;;104142;1283;2989233;-82
2023/06/21 14:31:46;;;;;;;8.90;5.00;;;;;;;;;;106404;1283;23116;-85
2023/06/21 14:34:13;;;;;;;10.50;4.80;;;;;;;;;;106380;1277;22526;-85
2023/06/21 14:36:43;;;;;;;10.40;5.10;;;;;;;;;;106146;1269;22642;-86
2023/06/21 14:39:12;;;;;;;8.80;4.90;;;;;;;;;;106219;1277;22569;-81
2023/06/21 14:41:43;;;;;;;8.10;4.90;;;;;;;;;;106264;1284;22520;-82
2023/06/21 14:44:11;;;;;;;10.70;4.60;;;;;;;;;;106407;1280;25362;-80
2023/06/21 14:46:40;;;;;;;8.00;4.50;;;;;;;;;;106644;1266;22698;-81
2023/06/21 14:49:11;;;;;;;10.30;4.70;;;;;;;;;;106380;1285;24218;-80
2023/06/21 14:51:39;;;;;;;8.00;4.80;;;;;;;;;;106214;1285;23160;-84
2023/06/21 14:54:06;;;;;;;8.70;5.00;;;;;;;;;;106690;1279;22523;-81
2023/06/21 14:56:36;;;;;;;8.50;4.70;;;;;;;;;;106691;1278;24189;-81
2023/06/21 14:59:06;;;;;;;10.20;4.50;;;;;;;;;;106622;1278;24892;-88
2023/06/21 15:01:33;;;;;;;7.80;4.20;;;;;;;;;;106674;1278;24270;-86
2023/06/21 15:04:00;;;;;;;11.30;4.30;;;;;;;;;;106753;1278;24246;-83
2023/06/21 15:06:26;;;;;;;9.60;4.30;;;;;;;;;;106836;1278;22493;-82
2023/06/21 15:08:53;;;;;;;10.70;4.00;;;;;;;;;;106551;1266;24363;-86
2023/06/21 15:11:20;;;;;;;8.30;4.30;;;;;;;;;;106838;1279;22588;-81
2023/06/21 15:13:47;;;;;;;8.50;3.60;;;;;;;;;;106804;1279;24494;-81
2023/06/21 15:16:13;;;;;;;9.20;4.90;;;;;;;;;;106525;1279;24484;-86